Time;durP1;ratioP1;P1;durP2;ratioP2;P2;SDS_P1;SDS_P2;PMS_P1;PMS_P2;Temp;Humidity;BMP_temperature;BMP_pressure;BME280_temperature;BME280_humidity;BME280_pressure;Samples;Min_cycle;Max_cycle;Signal;HPM_P1;HPM_P2
2023/12/12 00:00:50;;;;;;;102.95;3.70;;;;;;;19.63;59.34;98398.63;7308241;19;130490;-43
2023/12/12 00:03:16;;;;;;;47.13;1.85;;;;;;;19.64;58.71;98395.88;7310596;19;128884;-40
2023/12/12 00:05:41;;;;;;;67.45;2.50;;;;;;;19.68;59.08;98404.19;7309450;19;128849;-37
2023/12/12 00:08:06;;;;;;;37.33;1.52;;;;;;;19.68;59.04;98409.41;7312665;19;130221;-37
2023/12/12 00:10:31;;;;;;;112.90;4.13;;;;;;;19.64;59.00;98413.28;7317029;19;129191;-42
2023/12/12 00:12:57;;;;;;;91.30;3.42;;;;;;;19.66;58.62;98414.78;7314725;19;129007;-41
2023/12/12 00:15:22;;;;;;;53.90;2.03;;;;;;;19.70;59.26;98423.13;7317034;19;129337;-40
2023/12/12 00:17:48;;;;;;;108.00;3.92;;;;;;;19.70;58.70;98420.50;7312595;19;130894;-39
2023/12/12 00:20:13;;;;;;;129.00;4.65;;;;;;;19.68;58.48;98419.84;7316521;19;130400;-41
2023/12/12 00:22:38;;;;;;;71.68;2.70;;;;;;;19.68;58.41;98430.28;7314232;19;129376;-40
2023/12/12 00:25:04;;;;;;;58.92;2.33;;;;;;;19.67;58.93;98426.03;7315461;19;129387;-39
2023/12/12 00:27:29;;;;;;;153.48;5.45;;;;;;;19.71;58.30;98433.38;7315391;19;131029;-40
2023/12/12 00:29:55;;;;;;;52.60;2.00;;;;;;;19.70;58.63;98430.94;7315362;19;130296;-39
2023/12/12 00:32:20;;;;;;;65.22;2.55;;;;;;;19.75;57.97;98441.72;7317388;19;128980;-40
2023/12/12 00:34:46;;;;;;;75.53;2.90;;;;;;;19.80;57.82;98439.47;7316299;19;129418;-43
2023/12/12 00:37:11;;;;;;;135.63;4.85;;;;;;;19.80;58.40;98440.25;7314981;19;130182;-41
2023/12/12 00:39:38;;;;;;;91.40;3.45;;;;;;;19.78;58.32;98431.81;7315583;19;130610;-40
2023/12/12 00:42:04;;;;;;;35.78;1.48;;;;;;;19.74;58.71;98437.47;7315558;19;129186;-38
2023/12/12 00:44:29;;;;;;;70.70;2.70;;;;;;;19.68;58.76;98451.13;7315028;19;130005;-40
2023/12/12 00:46:54;;;;;;;182.30;6.53;;;;;;;19.59;58.64;98452.88;7313877;19;129999;-44
2023/12/12 00:49:20;;;;;;;119.90;4.45;;;;;;;19.54;58.85;98449.09;7313689;19;130185;-39
2023/12/12 00:51:45;;;;;;;49.10;1.83;;;;;;;19.50;58.96;98453.81;7315856;19;129246;-37
2023/12/12 00:54:11;;;;;;;73.97;2.88;;;;;;;19.46;58.88;98452.47;7316114;19;129013;-38
2023/12/12 00:56:36;;;;;;;117.03;4.35;;;;;;;19.42;59.40;98457.16;7315249;19;130235;-43
2023/12/12 00:59:02;;;;;;;69.45;2.63;;;;;;;19.40;59.21;98459.09;7312559;19;130445;-39
2023/12/12 01:01:27;;;;;;;74.63;2.75;;;;;;;19.38;59.46;98463.69;7315243;19;129229;-39
2023/12/12 01:03:52;;;;;;;65.65;2.45;;;;;;;19.37;59.44;98477.66;7315914;19;128869;-41
2023/12/12 01:06:23;;;;;;;74.88;2.78;;;;;;;19.36;60.31;98478.63;7314067;19;129956;-40
2023/12/12 01:08:48;;;;;;;59.70;2.28;;;;;;;19.34;59.99;98480.56;7312634;19;130401;-39
2023/12/12 01:11:14;;;;;;;64.70;2.42;;;;;;;19.33;60.38;98478.13;7313238;19;130228;-39
2023/12/12 01:13:39;;;;;;;129.25;4.68;;;;;;;19.30;59.78;98489.66;7314905;19;129156;-39
2023/12/12 01:16:05;;;;;;;76.53;2.78;;;;;;;19.26;59.60;98493.50;7316168;19;130364;-40
2023/12/12 01:18:31;;;;;;;55.08;2.17;;;;;;;19.27;60.22;98489.13;7311878;19;130533;-38
2023/12/12 01:20:56;;;;;;;54.50;2.10;;;;;;;19.24;60.63;98487.63;7313554;19;129788;-39
2023/12/12 01:23:22;;;;;;;140.85;4.95;;;;;;;19.27;60.17;98495.13;7314665;19;131336;-39
2023/12/12 01:25:47;;;;;;;53.08;2.13;;;;;;;19.25;60.81;98499.69;7312888;19;129133;-42
2023/12/12 01:28:12;;;;;;;47.83;1.80;;;;;;;19.25;61.12;98509.31;7313954;19;130345;-38
2023/12/12 01:30:38;;;;;;;85.22;3.20;;;;;;;19.24;60.76;98510.25;7309128;19;129551;-40
2023/12/12 01:33:03;;;;;;;118.53;4.25;;;;;;;19.24;60.83;98516.28;7309246;19;129848;-39
2023/12/12 01:35:28;;;;;;;37.00;1.42;;;;;;;19.23;60.32;98509.47;7314406;19;130270;-38
2023/12/12 01:37:54;;;;;;;59.13;2.15;;;;;;;19.07;60.37;98482.47;7310229;19;130473;-38
2023/12/12 01:40:19;;;;;;;60.03;2.33;;;;;;;19.22;61.50;98518.22;7314483;19;129157;-40
2023/12/12 01:42:44;;;;;;;111.78;4.15;;;;;;;19.23;60.55;98519.06;7312965;19;129028;-39
2023/12/12 01:45:10;;;;;;;70.22;2.72;;;;;;;19.03;61.40;98487.13;7313714;19;130129;-40
2023/12/12 01:47:35;;;;;;;67.25;2.70;;;;;;;19.22;60.67;98518.22;7312979;19;130259;-41
2023/12/12 01:50:01;;;;;;;118.22;4.35;;;;;;;19.20;61.07;98520.19;7308631;19;129071;-39
2023/12/12 01:52:27;;;;;;;103.43;3.70;;;;;;;19.21;60.95;98523.59;7314994;19;128987;-42
2023/12/12 01:54:53;;;;;;;89.72;3.33;;;;;;;19.20;60.40;98520.19;7312684;19;129762;-39
2023/12/12 01:57:21;;;;;;;40.28;1.52;;;;;;;19.23;60.10;98532.91;7312751;19;131251;-39
2023/12/12 01:59:47;;;;;;;113.75;4.05;;;;;;;19.21;60.79;98534.84;7311800;19;129463;-41
2023/12/12 02:02:16;;;;;;;;;;;;;;;19.22;61.57;98539.06;7315311;19;130491;-42
2023/12/12 02:04:43;;;;;;;62.00;2.40;;;;;;;19.21;61.22;98526.19;7313561;19;131138;-38
2023/12/12 02:07:09;;;;;;;59.25;2.45;;;;;;;19.03;60.35;98492.34;7309561;19;129651;-41
2023/12/12 02:09:35;;;;;;;117.63;4.22;;;;;;;19.20;60.71;98525.41;7310038;19;129049;-41
2023/12/12 02:12:01;;;;;;;133.73;4.97;;;;;;;19.19;60.39;98528.94;7311869;19;129226;-41
2023/12/12 02:14:27;;;;;;;61.85;2.40;;;;;;;19.09;60.87;98516.97;7312834;19;130760;-40
2023/12/12 02:16:52;;;;;;;78.90;2.92;;;;;;;19.22;60.50;98527.84;7310438;19;131125;-42
2023/12/12 02:19:17;;;;;;;67.68;2.55;;;;;;;19.21;60.57;98526.19;7309148;19;129974;-39
2023/12/12 02:21:43;;;;;;;133.90;4.82;;;;;;;19.19;60.85;98523.75;7313015;19;128925;-41
2023/12/12 02:24:08;;;;;;;77.50;3.05;;;;;;;19.20;60.41;98533.22;7312301;19;129603;-40
2023/12/12 02:26:34;;;;;;;24.27;1.08;;;;;;;19.20;61.05;98535.81;7310001;19;130475;-43
2023/12/12 02:28:59;;;;;;;138.10;4.95;;;;;;;19.20;60.57;98541.03;7309244;19;129149;-45
2023/12/12 02:31:25;;;;;;;58.00;2.25;;;;;;;19.17;60.71;98530.88;7311430;19;129228;-41
2023/12/12 02:33:50;;;;;;;59.83;2.28;;;;;;;19.16;60.85;98534.47;7313257;19;130463;-43
2023/12/12 02:36:16;;;;;;;76.68;3.03;;;;;;;19.21;60.77;98542.66;7310535;19;130279;-37
2023/12/12 02:38:41;;;;;;;148.25;5.18;;;;;;;19.20;61.13;98550.63;7310199;19;128926;-39
2023/12/12 02:41:08;;;;;;;75.70;2.88;;;;;;;19.20;60.71;98554.06;7311250;19;129770;-40
2023/12/12 02:43:33;;;;;;;54.63;2.13;;;;;;;19.20;60.65;98564.47;7312500;19;130138;-38
2023/12/12 02:45:59;;;;;;;55.20;2.10;;;;;;;19.20;61.17;98555.84;7311155;19;130319;-39
2023/12/12 02:48:26;;;;;;;132.18;4.75;;;;;;;19.20;60.57;98568.88;7309925;19;129806;-40
2023/12/12 02:50:51;;;;;;;110.13;4.03;;;;;;;19.19;60.77;98567.22;7312992;19;129538;-40
2023/12/12 02:53:16;;;;;;;82.10;3.13;;;;;;;19.18;60.89;98573.41;7312260;19;130515;-40
2023/12/12 02:55:42;;;;;;;67.15;2.60;;;;;;;19.19;60.82;98580.22;7312729;19;130537;-38
2023/12/12 02:58:07;;;;;;;116.47;4.22;;;;;;;19.19;61.09;98585.44;7310974;19;129849;-40
2023/12/12 03:00:32;;;;;;;53.60;1.95;;;;;;;19.18;61.16;98589.84;7314045;19;129485;-41
2023/12/12 03:02:58;;;;;;;68.53;2.47;;;;;;;19.18;60.28;98589.84;7312383;19;130560;-39
2023/12/12 03:05:23;;;;;;;69.22;2.58;;;;;;;19.17;60.47;98585.59;7310448;19;129156;-42
2023/12/12 03:07:48;;;;;;;131.90;4.80;;;;;;;19.19;60.90;98578.44;7312449;19;129322;-41
2023/12/12 03:10:14;;;;;;;45.60;1.67;;;;;;;19.20;60.25;98574.91;7313748;19;128957;-39
2023/12/12 03:12:39;;;;;;;58.95;2.30;;;;;;;19.19;60.85;98583.66;7311202;19;129861;-41
2023/12/12 03:15:05;;;;;;;78.90;2.85;;;;;;;19.19;60.89;98570.63;7310771;19;129166;-40
2023/12/12 03:17:30;;;;;;;123.03;4.47;;;;;;;19.20;60.61;98585.31;7311150;19;129661;-39
2023/12/12 03:19:56;;;;;;;94.20;3.45;;;;;;;19.19;60.96;98586.28;7305377;19;131927;-40
2023/12/12 03:22:21;;;;;;;99.47;3.80;;;;;;;19.19;60.66;98585.44;7311245;19;129914;-39
2023/12/12 03:24:46;;;;;;;259.73;9.70;;;;;;;19.19;60.67;98580.22;7307815;19;130695;-38
2023/12/12 03:27:12;;;;;;;66.50;2.70;;;;;;;19.19;60.16;98581.06;7307275;19;129301;-43
2023/12/12 03:29:38;;;;;;;57.03;2.38;;;;;;;19.21;60.31;98579.13;7306426;19;129063;-40
2023/12/12 03:32:03;;;;;;;50.43;1.93;;;;;;;19.04;60.79;98561.69;7311334;19;130232;-39
2023/12/12 03:34:29;;;;;;;158.52;5.65;;;;;;;19.16;60.73;98586.56;7309683;19;131106;-39
2023/12/12 03:36:54;;;;;;;118.32;4.47;;;;;;;19.18;61.41;98584.66;7309399;19;129718;-42
2023/12/12 03:39:21;;;;;;;64.20;2.40;;;;;;;19.16;60.37;98576.16;7308998;19;129451;-41
2023/12/12 03:41:46;;;;;;;54.92;2.05;;;;;;;19.19;60.92;98581.06;7311287;19;130621;-39
2023/12/12 03:44:11;;;;;;;124.40;4.38;;;;;;;19.05;61.11;98568.56;7317805;19;129208;-43
2023/12/12 03:46:37;;;;;;;117.78;4.38;;;;;;;19.17;60.10;98588.19;7316937;19;128851;-39
2023/12/12 03:49:02;;;;;;;63.85;2.50;;;;;;;19.18;60.88;98584.66;7314037;19;129376;-42
2023/12/12 03:51:27;;;;;;;95.40;3.58;;;;;;;19.19;60.63;98581.06;7317587;19;130023;-38
2023/12/12 03:53:53;;;;;;;138.32;5.47;;;;;;;19.19;60.33;98575.84;7313469;19;131255;-40
2023/12/12 03:56:18;;;;;;;48.80;1.85;;;;;;;19.17;60.23;98572.56;7318223;19;128946;-41
2023/12/12 03:58:45;;;;;;;134.32;4.97;;;;;;;19.19;60.62;98575.84;7313277;19;129087;-40
2023/12/12 04:01:10;;;;;;;101.18;3.70;;;;;;;19.20;60.40;98574.06;7316151;19;130111;-41
2023/12/12 04:03:36;;;;;;;55.78;2.05;;;;;;;19.21;60.38;98581.72;7317607;19;128879;-40
2023/12/12 04:06:03;;;;;;;50.78;2.00;;;;;;;19.19;60.19;98572.41;7315946;19;129034;-39
2023/12/12 04:08:28;;;;;;;63.00;2.47;;;;;;;19.20;60.84;98577.50;7314814;19;129202;-41
2023/12/12 04:10:54;;;;;;;113.13;3.97;;;;;;;19.20;60.95;98574.91;7315364;19;130355;-37
2023/12/12 04:13:19;;;;;;;69.75;2.53;;;;;;;19.20;60.47;98577.50;7318388;19;130430;-39
2023/12/12 04:15:44;;;;;;;92.05;3.35;;;;;;;19.19;61.31;98578.44;7316713;19;129526;-38
2023/12/12 04:18:10;;;;;;;16.10;0.77;;;;;;;19.20;60.08;98577.50;7316072;19;129061;-40
2023/12/12 04:20:35;;;;;;;130.77;4.65;;;;;;;19.20;60.07;98577.50;7315400;19;130282;-40
2023/12/12 04:23:00;;;;;;;65.97;2.50;;;;;;;19.19;61.15;98581.06;7314970;19;130470;-40
2023/12/12 04:25:25;;;;;;;80.60;2.90;;;;;;;19.05;60.66;98563.34;7315232;19;130474;-40
2023/12/12 04:27:51;;;;;;;50.65;1.88;;;;;;;19.18;60.08;98587.25;7314726;19;128907;-40
2023/12/12 04:30:16;;;;;;;108.50;3.85;;;;;;;19.21;60.20;98588.72;7316715;19;130096;-42
2023/12/12 04:32:42;;;;;;;76.40;2.75;;;;;;;19.23;60.14;98592.84;7316420;19;131166;-37
2023/12/12 04:35:09;;;;;;;75.93;2.75;;;;;;;19.21;60.67;98589.56;7315353;19;129738;-42
2023/12/12 04:37:35;;;;;;;69.03;2.58;;;;;;;19.18;60.55;98589.84;7315613;19;128969;-39
2023/12/12 04:40:01;;;;;;;116.38;4.25;;;;;;;19.14;60.86;98583.28;7314596;19;129754;-41
2023/12/12 04:42:26;;;;;;;38.13;1.50;;;;;;;19.20;59.88;98585.31;7317941;19;130167;-40
2023/12/12 04:44:51;;;;;;;99.68;3.72;;;;;;;19.41;59.47;98585.84;7314674;19;128949;-42
2023/12/12 04:47:17;;;;;;;127.93;4.55;;;;;;;19.86;58.08;98587.50;7313202;19;130533;-40
2023/12/12 04:49:42;;;;;;;102.20;3.55;;;;;;;20.36;56.96;98578.84;7315251;19;130193;-40
2023/12/12 04:52:08;;;;;;;38.55;1.50;;;;;;;20.73;56.11;98581.09;7315784;19;129616;-41
2023/12/12 04:54:33;;;;;;;59.13;2.30;;;;;;;21.11;54.78;98591.03;7315508;19;129681;-40
2023/12/12 04:56:59;;;;;;;139.20;5.07;;;;;;;21.40;53.67;98580.94;7314478;19;129163;-37
2023/12/12 04:59:25;;;;;;;74.22;2.75;;;;;;;21.58;53.05;98588.63;7315180;19;130284;-42
2023/12/12 05:01:50;;;;;;;78.50;2.85;;;;;;;21.76;52.94;98591.88;7315932;19;129983;-39
2023/12/12 05:04:15;;;;;;;45.65;1.67;;;;;;;21.92;51.92;98595.34;7314106;19;129104;-40
2023/12/12 05:06:41;;;;;;;93.43;3.47;;;;;;;22.05;51.48;98592.19;7313555;19;129134;-40
2023/12/12 05:09:07;;;;;;;102.28;3.83;;;;;;;22.08;51.28;98583.22;7313737;19;132548;-40
2023/12/12 05:11:32;;;;;;;76.20;2.95;;;;;;;22.09;51.28;98572.56;7315033;19;130393;-38
2023/12/12 05:13:58;;;;;;;87.55;3.25;;;;;;;22.16;51.81;98584.00;7316052;19;129277;-39
2023/12/12 05:16:24;;;;;;;107.70;3.83;;;;;;;22.12;51.46;98566.16;7315125;19;130131;-40
2023/12/12 05:18:49;;;;;;;97.17;3.57;;;;;;;22.18;51.68;98587.25;7312034;19;131009;-40
2023/12/12 05:21:14;;;;;;;59.78;2.17;;;;;;;22.11;51.55;98559.31;7312287;19;129723;-38
2023/12/12 05:23:41;;;;;;;52.05;2.00;;;;;;;22.32;50.75;98585.75;7314699;19;129907;-36
2023/12/12 05:26:07;;;;;;;83.35;3.13;;;;;;;22.33;50.79;98595.25;7311188;19;129278;-37
2023/12/12 05:28:32;;;;;;;49.67;1.93;;;;;;;22.43;50.59;98601.13;7313993;19;130174;-42
2023/12/12 05:30:58;;;;;;;86.80;3.13;;;;;;;22.45;50.47;98594.72;7308164;19;131103;-41
2023/12/12 05:33:23;;;;;;;88.50;3.33;;;;;;;22.49;50.38;98603.03;7311289;19;129107;-40
2023/12/12 05:35:48;;;;;;;104.20;3.70;;;;;;;22.40;51.00;98580.47;7311412;19;129208;-40
2023/12/12 05:38:14;;;;;;;210.32;8.00;;;;;;;22.39;50.69;98579.69;7308622;19;130303;-39
2023/12/12 05:40:39;;;;;;;72.18;2.70;;;;;;;22.59;50.93;98603.69;7313813;19;130338;-38
2023/12/12 05:43:05;;;;;;;145.07;5.30;;;;;;;22.73;50.08;98595.09;7311203;19;128897;-41
2023/12/12 05:45:30;;;;;;;128.75;4.78;;;;;;;22.73;50.42;98598.56;7313245;19;129357;-38
2023/12/12 05:47:56;;;;;;;69.95;2.55;;;;;;;22.75;49.82;98611.47;7313262;19;130590;-39
2023/12/12 05:50:21;;;;;;;61.33;2.38;;;;;;;22.86;50.12;98617.16;7312394;19;129224;-40
2023/12/12 05:52:46;;;;;;;132.23;4.73;;;;;;;22.79;49.58;98608.34;7312007;19;129170;-40
2023/12/12 05:55:12;;;;;;;91.15;3.45;;;;;;;22.78;49.91;98611.13;7312702;19;129265;-43
2023/12/12 05:57:37;;;;;;;46.42;1.77;;;;;;;22.64;49.83;98622.34;7312129;19;129127;-38
2023/12/12 06:00:05;;;;;;;73.90;2.75;;;;;;;22.39;50.83;98615.53;7308922;19;129772;-37
2023/12/12 06:02:31;;;;;;;125.95;4.53;;;;;;;22.39;50.77;98629.44;7311250;19;129481;-38
2023/12/12 06:04:56;;;;;;;67.10;2.42;;;;;;;22.36;50.84;98615.84;7310478;19;129069;-42
2023/12/12 06:07:21;;;;;;;87.70;3.22;;;;;;;22.23;51.01;98616.38;7307847;19;129732;-36
2023/12/12 06:09:47;;;;;;;84.30;3.00;;;;;;;22.12;51.69;98629.00;7308874;19;129483;-38
2023/12/12 06:12:13;;;;;;;104.80;3.95;;;;;;;21.94;50.75;98627.41;7312090;19;129006;-39
2023/12/12 06:14:38;;;;;;;253.02;9.57;;;;;;;21.74;51.29;98618.22;7308430;19;129182;-42
2023/12/12 06:17:03;;;;;;;59.33;2.53;;;;;;;21.68;52.24;98642.41;7307361;19;131095;-41
2023/12/12 06:19:29;;;;;;;94.85;3.45;;;;;;;21.55;52.43;98641.25;7307871;19;130547;-38
2023/12/12 06:21:54;;;;;;;134.27;4.88;;;;;;;21.45;52.81;98646.63;7312637;19;129053;-40
2023/12/12 06:24:20;;;;;;;86.47;3.43;;;;;;;21.45;53.33;98645.81;7313736;19;129190;-41
2023/12/12 06:26:46;;;;;;;99.82;3.92;;;;;;;21.54;53.11;98643.06;7307159;19;131675;-40
2023/12/12 06:29:13;;;;;;;185.90;7.07;;;;;;;21.60;53.02;98647.63;7305083;19;132394;-39
2023/12/12 06:31:39;;;;;;;116.40;4.60;;;;;;;21.72;53.03;98643.72;7309715;19;131079;-43
2023/12/12 06:34:04;;;;;;;98.50;3.80;;;;;;;21.71;52.13;98633.41;7308132;19;131302;-38
2023/12/12 06:36:30;;;;;;;66.95;2.58;;;;;;;21.93;52.30;98646.69;7310551;19;130085;-41
2023/12/12 06:38:55;;;;;;;102.68;3.78;;;;;;;22.09;52.07;98650.28;7307698;19;131059;-43
2023/12/12 06:41:20;;;;;;;94.03;3.58;;;;;;;22.18;51.72;98654.53;7313784;19;129738;-40
2023/12/12 06:43:46;;;;;;;58.40;2.37;;;;;;;22.27;51.05;98643.88;7312460;19;129281;-42
2023/12/12 06:46:11;;;;;;;113.22;4.32;;;;;;;22.38;50.98;98655.81;7310744;19;130037;-39
2023/12/12 06:48:38;;;;;;;95.82;3.47;;;;;;;22.42;51.08;98651.84;7307795;19;130937;-40
2023/12/12 06:51:06;;;;;;;66.72;2.65;;;;;;;22.42;51.08;98625.66;7310375;19;128935;-39
2023/12/12 06:53:35;;;;;;;36.95;1.58;;;;;;;22.60;50.28;98644.63;7311959;19;129646;-40
2023/12/12 06:56:01;;;;;;;72.63;2.97;;;;;;;22.71;49.98;98636.41;7312124;19;131179;-39
2023/12/12 06:58:26;;;;;;;125.37;4.50;;;;;;;22.70;49.90;98656.53;7308834;19;130368;-41
2023/12/12 07:00:52;;;;;;;321.65;13.00;;;;;;;22.66;48.84;98654.44;7280593;19;130830;-44
2023/12/12 07:03:18;;;;;;;104.15;4.00;;;;;;;22.45;49.09;98646.25;7287377;19;129098;-39
2023/12/12 07:05:44;;;;;;;205.57;7.75;;;;;;;22.50;50.29;98651.81;7293082;19;131132;-38
2023/12/12 07:08:09;;;;;;;238.73;9.18;;;;;;;22.41;50.15;98650.22;7289447;19;131207;-45
2023/12/12 07:10:34;;;;;;;152.45;5.78;;;;;;;22.32;50.83;98652.03;7289798;19;129225;-44
2023/12/12 07:13:00;;;;;;;244.70;9.48;;;;;;;22.20;51.62;98657.75;7287319;19;130070;-40
2023/12/12 07:15:28;;;;;;;261.53;9.77;;;;;;;22.10;51.69;98651.91;7292083;19;130858;-40
2023/12/12 07:17:54;;;;;;;260.13;9.63;;;;;;;22.06;51.72;98655.84;7285406;19;133841;-40
2023/12/12 07:20:21;;;;;;;242.15;8.93;;;;;;;21.91;52.75;98653.88;7291497;19;129210;-39
2023/12/12 07:22:46;;;;;;;264.08;10.32;;;;;;;21.95;52.50;98660.44;7290881;19;130476;-41
2023/12/12 07:25:12;;;;;;;185.85;6.80;;;;;;;22.01;52.46;98660.75;7291690;19;130080;-41
2023/12/12 07:27:37;;;;;;;207.65;7.80;;;;;;;22.01;52.11;98664.19;7289019;19;131025;-40
2023/12/12 07:30:03;;;;;;;242.48;9.20;;;;;;;22.10;52.13;98667.63;7288813;19;129130;-39
2023/12/12 07:32:29;;;;;;;202.70;7.72;;;;;;;22.23;51.85;98667.94;7293259;19;130068;-41
2023/12/12 07:34:54;;;;;;;211.80;7.93;;;;;;;22.35;51.59;98671.81;7290937;19;132888;-41
2023/12/12 07:37:20;;;;;;;264.98;10.10;;;;;;;22.43;51.51;98669.22;7282972;19;130205;-40
2023/12/12 07:39:45;;;;;;;174.00;6.57;;;;;;;22.51;51.24;98666.56;7289953;19;130932;-40
2023/12/12 07:42:10;;;;;;;228.85;8.93;;;;;;;22.69;51.20;98659.34;7286799;19;132223;-38
2023/12/12 07:44:36;;;;;;;291.38;10.90;;;;;;;22.74;51.56;98664.88;7286098;19;132555;-40
2023/12/12 07:47:02;;;;;;;421.23;17.25;;;;;;;22.87;51.06;98663.34;7286070;19;130128;-42
2023/12/12 07:49:28;;;;;;;367.83;14.48;;;;;;;23.00;50.60;98658.38;7284653;19;130448;-39
2023/12/12 07:51:54;;;;;;;220.18;8.27;;;;;;;23.01;50.29;98659.19;7291843;19;130896;-44
2023/12/12 07:54:20;;;;;;;197.35;7.30;;;;;;;22.97;50.49;98636.94;7286357;19;129554;-42
2023/12/12 07:56:45;;;;;;;315.03;12.03;;;;;;;23.05;50.93;98656.06;7290834;19;131295;-39
2023/12/12 07:59:11;;;;;;;230.60;8.73;;;;;;;23.00;50.40;98654.94;7288191;19;132450;-38
2023/12/12 08:01:37;;;;;;;176.13;6.80;;;;;;;22.92;51.38;98657.59;7292485;19;129624;-42
2023/12/12 08:04:04;;;;;;;266.23;10.03;;;;;;;22.85;50.98;98659.25;7290652;19;130707;-43
2023/12/12 08:06:30;;;;;;;177.68;6.90;;;;;;;22.75;51.46;98663.88;7291260;19;131388;-40
2023/12/12 08:08:56;;;;;;;204.43;7.93;;;;;;;22.66;51.74;98654.44;7289135;19;130025;-40
2023/12/12 08:11:24;;;;;;;179.75;6.80;;;;;;;22.48;51.70;98656.41;7289592;19;130337;-40
2023/12/12 08:13:50;;;;;;;273.33;10.30;;;;;;;22.37;52.81;98649.72;7291176;19;130195;-43
2023/12/12 08:16:15;;;;;;;96.60;3.78;;;;;;;22.27;52.84;98653.50;7291113;19;132648;-42
2023/12/12 08:18:40;;;;;;;282.58;10.68;;;;;;;22.19;53.15;98656.16;7289849;19;131619;-39
2023/12/12 08:21:08;;;;;;;238.30;9.07;;;;;;;22.11;53.34;98658.78;7289425;19;130808;-40
2023/12/12 08:23:34;;;;;;;367.88;14.38;;;;;;;22.17;53.64;98658.09;7289383;19;129744;-45
2023/12/12 08:26:00;;;;;;;206.98;7.97;;;;;;;22.22;53.16;98654.03;7283389;19;130898;-40
2023/12/12 08:28:26;;;;;;;257.03;9.40;;;;;;;22.31;53.43;98655.66;7291932;19;130165;-40
2023/12/12 08:30:51;;;;;;;224.93;8.57;;;;;;;22.42;52.83;98657.09;7294866;19;129692;-43
2023/12/12 08:33:18;;;;;;;134.20;4.93;;;;;;;22.47;50.37;98657.41;7296885;19;130554;-44
2023/12/12 08:35:43;;;;;;;199.80;7.68;;;;;;;22.37;49.26;98664.63;7297129;19;132021;-39
2023/12/12 08:38:09;;;;;;;194.13;7.68;;;;;;;22.42;48.55;98641.38;7294056;19;129187;-42
2023/12/12 08:40:34;;;;;;;200.23;7.50;;;;;;;22.66;48.58;98654.44;7294997;19;129196;-42
2023/12/12 08:42:59;;;;;;;261.60;10.13;;;;;;;22.72;47.99;98659.00;7295792;19;130234;-45
2023/12/12 08:45:25;;;;;;;178.95;7.32;;;;;;;22.76;48.24;98658.47;7296861;19;130368;-41
2023/12/12 08:47:50;;;;;;;184.87;7.10;;;;;;;22.84;48.44;98658.44;7294328;19;130427;-44
2023/12/12 08:50:15;;;;;;;304.20;11.55;;;;;;;22.93;47.49;98667.09;7297099;19;130042;-38
2023/12/12 08:52:41;;;;;;;168.50;6.70;;;;;;;22.97;47.45;98673.63;7298542;19;130418;-43
2023/12/12 08:55:08;;;;;;;236.77;9.48;;;;;;;22.98;47.67;98670.00;7293198;19;131341;-44
2023/12/12 08:57:34;;;;;;;148.15;6.03;;;;;;;23.02;46.67;98660.84;7296065;19;129151;-38
2023/12/12 09:00:01;;;;;;;283.73;11.10;;;;;;;22.84;47.18;98678.59;7292248;19;129248;-42
2023/12/12 09:02:26;;;;;;;195.13;7.97;;;;;;;22.54;48.56;98658.41;7299082;19;132568;-39
2023/12/12 09:04:52;;;;;;;214.17;8.60;;;;;;;22.61;49.07;98667.22;7295975;19;131318;-40
2023/12/12 09:07:17;;;;;;;191.50;7.68;;;;;;;22.53;49.96;98680.31;7293882;19;130224;-38
2023/12/12 09:09:43;;;;;;;256.33;9.95;;;;;;;22.47;50.05;98683.59;7293821;19;129800;-42
2023/12/12 09:12:08;;;;;;;216.93;9.02;;;;;;;22.29;50.58;98659.41;7297272;19;131289;-42
2023/12/12 09:14:34;;;;;;;200.98;7.93;;;;;;;22.27;50.51;98674.47;7297081;19;130431;-41
2023/12/12 09:17:00;;;;;;;274.45;11.40;;;;;;;22.16;51.03;98683.50;7293524;19;130508;-40
2023/12/12 09:19:25;;;;;;;236.83;9.13;;;;;;;22.19;51.84;98682.31;7294881;19;129085;-44
2023/12/12 09:21:51;;;;;;;205.90;8.27;;;;;;;22.23;51.84;98684.44;7295464;19;131727;-41
2023/12/12 09:24:16;;;;;;;234.32;9.10;;;;;;;22.29;51.76;98685.59;7293876;19;131751;-40
2023/12/12 09:26:43;;;;;;;260.08;10.75;;;;;;;22.37;51.84;98682.94;7295438;19;129610;-39
2023/12/12 09:29:08;;;;;;;272.38;10.50;;;;;;;22.54;51.16;98687.22;7292034;19;129635;-43
2023/12/12 09:31:35;;;;;;;185.40;7.15;;;;;;;22.62;50.95;98681.94;7296455;19;131630;-40
2023/12/12 09:34:00;;;;;;;203.82;7.97;;;;;;;22.67;51.19;98677.03;7296571;19;130476;-40
2023/12/12 09:36:26;;;;;;;236.25;8.95;;;;;;;22.77;51.17;98672.41;7293425;19;129602;-38
2023/12/12 09:38:51;;;;;;;239.60;9.35;;;;;;;22.89;50.98;98681.53;7294611;19;131817;-40
2023/12/12 09:41:21;;;;;;;195.10;7.38;;;;;;;23.05;50.35;98678.84;7292386;19;131044;-42
2023/12/12 09:43:48;;;;;;;167.55;6.25;;;;;;;23.05;50.21;98682.28;7296059;19;131112;-43
2023/12/12 09:46:14;;;;;;;201.10;8.00;;;;;;;23.15;50.61;98687.31;7295460;19;130147;-40
2023/12/12 09:48:42;;;;;;;198.98;7.28;;;;;;;23.20;50.47;98679.75;7295027;19;129471;-43
2023/12/12 09:51:08;;;;;;;217.23;8.77;;;;;;;23.19;49.96;98657.13;7291785;19;130182;-40
2023/12/12 09:53:35;;;;;;;204.55;7.65;;;;;;;23.25;50.32;98666.94;7295924;19;130295;-39
2023/12/12 09:56:06;;;;;;;270.48;12.65;;;;;;;23.20;50.86;98653.53;7296155;19;129434;-40
2023/12/12 09:58:32;;;;;;;253.45;9.93;;;;;;;23.04;51.13;98664.06;7293716;19;130032;-38
2023/12/12 10:01:02;;;;;;;189.48;7.68;;;;;;;22.90;49.53;98662.19;7296862;19;130874;-36
2023/12/12 10:03:28;;;;;;;141.32;5.60;;;;;;;22.79;50.43;98665.19;7292363;19;131637;-39
2023/12/12 10:05:56;;;;;;;201.37;8.00;;;;;;;22.60;51.78;98655.09;7294205;19;129623;-40
2023/12/12 10:08:23;;;;;;;250.23;9.85;;;;;;;22.47;51.53;98654.78;7291128;19;130026;-39
2023/12/12 10:10:52;;;;;;;192.38;7.43;;;;;;;22.38;52.50;98655.81;7295143;19;130676;-42
2023/12/12 10:13:19;;;;;;;229.13;9.20;;;;;;;22.31;53.01;98654.81;7289106;19;130241;-41
2023/12/12 10:15:44;;;;;;;134.80;5.35;;;;;;;22.18;52.97;98654.53;7291283;19;130018;-38
2023/12/12 10:18:10;;;;;;;208.23;8.38;;;;;;;22.15;53.35;98645.19;7287064;19;130146;-39
2023/12/12 10:20:35;;;;;;;255.33;9.87;;;;;;;22.26;52.65;98646.66;7294665;19;130928;-37
2023/12/12 10:23:03;;;;;;;300.03;12.23;;;;;;;22.28;52.95;98644.69;7291023;19;130063;-43
2023/12/12 10:25:29;;;;;;;209.45;7.75;;;;;;;22.38;52.28;98634.84;7288418;19;131445;-38
2023/12/12 10:27:56;;;;;;;;;;;;;;;22.33;52.67;98626.69;7292193;19;129435;-43
2023/12/12 10:30:21;;;;;;;253.63;10.05;;;;;;;22.61;52.44;98641.03;7291784;19;130663;-41
2023/12/12 10:32:51;;;;;;;122.70;5.00;;;;;;;22.70;52.12;98640.81;7295375;19;132657;-38
2023/12/12 10:35:18;;;;;;;328.70;13.40;;;;;;;22.70;51.78;98640.00;7293121;19;129768;-38
2023/12/12 10:37:43;;;;;;;143.95;5.57;;;;;;;22.69;51.92;98620.03;7293825;19;131502;-38
2023/12/12 10:40:12;;;;;;;187.15;7.70;;;;;;;22.91;51.32;98629.75;7291437;19;130760;-36
2023/12/12 10:42:40;;;;;;;211.25;8.05;;;;;;;22.96;51.61;98620.38;7294035;19;129791;-36
2023/12/12 10:45:06;;;;;;;251.10;9.45;;;;;;;23.03;51.74;98615.28;7292671;19;132241;-36
2023/12/12 10:47:34;;;;;;;285.15;11.07;;;;;;;23.08;51.57;98607.69;7289141;19;129461;-39
2023/12/12 10:50:02;;;;;;;209.80;8.13;;;;;;;23.16;51.46;98618.13;7292033;19;129883;-36
2023/12/12 10:52:30;;;;;;;235.90;9.25;;;;;;;23.20;51.66;98608.94;7281470;19;130819;-42
2023/12/12 10:54:59;;;;;;;385.60;15.63;;;;;;;23.16;50.80;98587.50;7280197;19;131095;-39
2023/12/12 10:57:25;;;;;;;272.77;10.48;;;;;;;23.27;51.00;98602.03;7283624;19;131264;-41
2023/12/12 10:59:53;;;;;;;234.45;9.52;;;;;;;23.31;51.22;98597.25;7285016;19;131321;-39
2023/12/12 11:02:19;;;;;;;223.63;8.95;;;;;;;23.08;51.59;98592.78;7286645;19;130490;-39
2023/12/12 11:04:46;;;;;;;274.17;10.37;;;;;;;23.13;51.17;98579.16;7287036;19;131172;-38